createdAt,value
2022-11-20T00:05:00.033Z,19
2022-11-20T00:10:00.404Z,19
2022-11-20T00:14:59.896Z,20
2022-11-20T00:19:59.934Z,20
2022-11-20T00:25:00.021Z,20
2022-11-20T00:30:00.464Z,21
2022-11-20T00:35:00.384Z,21
2022-11-20T00:39:59.886Z,21
2022-11-20T00:44:59.918Z,21
2022-11-20T00:49:59.904Z,20
2022-11-20T00:54:59.851Z,20
2022-11-20T01:00:00.165Z,20
2022-11-20T01:05:00.090Z,20
2022-11-20T01:10:00.088Z,20
2022-11-20T01:14:59.960Z,20
2022-11-20T01:20:00.105Z,20
2022-11-20T01:25:00.058Z,19
2022-11-20T01:30:01.429Z,19
2022-11-20T01:35:00.017Z,18
2022-11-20T01:40:00.015Z,18
2022-11-20T01:45:00.029Z,18
2022-11-20T01:49:59.952Z,18
2022-11-20T01:54:59.977Z,18
2022-11-20T01:59:59.766Z,18
2022-11-20T02:04:59.891Z,18
2022-11-20T02:09:59.848Z,17
2022-11-20T02:14:59.974Z,17
2022-11-20T02:20:00.334Z,17
2022-11-20T02:24:59.766Z,17
2022-11-20T02:29:59.833Z,17
2022-11-20T02:34:59.742Z,17
2022-11-20T02:39:59.986Z,17
2022-11-20T02:45:00.007Z,17
2022-11-20T02:49:59.727Z,17
2022-11-20T02:55:00.046Z,17
2022-11-20T02:59:59.981Z,17
2022-11-20T03:04:59.665Z,17
2022-11-20T03:09:59.759Z,17
2022-11-20T03:15:00.000Z,17
2022-11-20T03:19:59.831Z,16
2022-11-20T03:24:59.857Z,16
2022-11-20T03:29:59.758Z,16
2022-11-20T03:34:59.697Z,16
2022-11-20T03:39:59.793Z,16
2022-11-20T03:44:59.905Z,16
2022-11-20T03:49:59.909Z,16
2022-11-20T03:55:00.087Z,15
2022-11-20T03:59:59.632Z,16
2022-11-20T04:04:59.764Z,15
2022-11-20T04:09:59.971Z,15
2022-11-20T04:14:59.811Z,15
2022-11-20T04:19:59.688Z,15
2022-11-20T04:24:59.606Z,15
2022-11-20T04:29:59.768Z,14
2022-11-20T04:34:59.904Z,14
2022-11-20T04:39:59.610Z,15
2022-11-20T04:44:59.817Z,15
2022-11-20T04:49:59.999Z,15
2022-11-20T04:54:59.642Z,14
2022-11-20T04:59:59.833Z,15
2022-11-20T05:04:59.599Z,15
2022-11-20T05:09:59.624Z,15
2022-11-20T05:14:59.693Z,14
2022-11-20T05:19:59.757Z,15
2022-11-20T05:24:59.778Z,15
2022-11-20T05:29:59.645Z,15
2022-11-20T05:34:59.712Z,15
2022-11-20T05:39:59.557Z,15
2022-11-20T05:44:59.604Z,15
2022-11-20T05:49:59.502Z,15
2022-11-20T05:54:59.530Z,15
2022-11-20T05:59:59.853Z,15
2022-11-20T06:04:59.795Z,15
2022-11-20T06:09:59.924Z,15
2022-11-20T06:14:59.853Z,15
2022-11-20T06:19:59.864Z,15
2022-11-20T06:24:59.832Z,15
2022-11-20T06:29:59.593Z,15
2022-11-20T06:34:59.445Z,16
2022-11-20T06:39:59.658Z,16
2022-11-20T06:44:59.833Z,16
2022-11-20T06:49:59.814Z,16
2022-11-20T06:54:59.659Z,16
2022-11-20T06:59:59.787Z,16
2022-11-20T07:04:59.532Z,16
2022-11-20T07:09:59.752Z,16
2022-11-20T07:14:59.691Z,16
2022-11-20T07:19:59.820Z,16
2022-11-20T07:24:59.666Z,16
2022-11-20T07:29:59.763Z,17
2022-11-20T07:34:59.686Z,17
2022-11-20T07:39:59.579Z,17
2022-11-20T07:44:59.780Z,17
2022-11-20T07:49:59.436Z,17
2022-11-20T07:54:59.490Z,17
2022-11-20T07:59:59.602Z,17
2022-11-20T08:04:59.694Z,17
2022-11-20T08:09:59.474Z,18
2022-11-20T08:14:59.674Z,18
2022-11-20T08:19:59.773Z,18
2022-11-20T08:24:59.757Z,18
2022-11-20T08:29:59.388Z,19
2022-11-20T08:34:59.499Z,19
2022-11-20T08:39:59.381Z,19
2022-11-20T08:44:59.583Z,19
2022-11-20T08:49:59.357Z,19
2022-11-20T08:54:59.354Z,20
2022-11-20T09:00:05.947Z,20
2022-11-20T09:04:59.309Z,20
2022-11-20T09:10:22.532Z,20
2022-11-20T09:14:59.639Z,20
2022-11-20T09:19:59.330Z,21
2022-11-20T09:24:59.672Z,21
2022-11-20T09:29:59.415Z,21
2022-11-20T09:39:59.372Z,22
2022-11-20T09:44:59.575Z,22
2022-11-20T09:49:59.588Z,23
2022-11-20T09:54:59.322Z,22
2022-11-20T09:59:59.402Z,22
2022-11-20T10:04:59.442Z,22
2022-11-20T10:09:59.531Z,22
2022-11-20T10:14:59.505Z,22
2022-11-20T10:19:59.466Z,23
2022-11-20T10:24:59.512Z,23
2022-11-20T10:29:59.561Z,23
2022-11-20T10:34:59.407Z,23
2022-11-20T10:39:59.358Z,23
2022-11-20T10:45:02.778Z,24
2022-11-20T10:49:59.513Z,24
2022-11-20T10:54:59.412Z,24
2022-11-20T10:59:59.328Z,24
2022-11-20T11:04:59.543Z,25
2022-11-20T11:09:59.266Z,25
2022-11-20T11:14:59.485Z,25
2022-11-20T11:19:59.190Z,25
2022-11-20T11:24:59.395Z,25
2022-11-20T11:29:59.266Z,25
2022-11-20T11:34:59.446Z,26
2022-11-20T11:40:22.791Z,26
2022-11-20T11:44:59.428Z,26
2022-11-20T11:49:59.131Z,26
2022-11-20T11:54:59.515Z,27
2022-11-20T11:59:59.330Z,27
2022-11-20T12:04:59.203Z,27
2022-11-20T12:09:59.438Z,28
2022-11-20T12:14:59.352Z,28
2022-11-20T12:19:59.351Z,28
2022-11-20T12:24:59.279Z,29
2022-11-20T12:29:59.390Z,29
2022-11-20T12:34:59.571Z,29
2022-11-20T12:39:59.195Z,29
2022-11-20T12:44:59.445Z,30
2022-11-20T12:49:59.529Z,30
2022-11-20T12:54:59.098Z,31
2022-11-20T12:59:59.149Z,31
2022-11-20T13:04:59.131Z,31
2022-11-20T13:09:59.895Z,31
2022-11-20T13:14:59.300Z,31
2022-11-20T13:19:59.323Z,32
2022-11-20T13:24:59.140Z,31
2022-11-20T13:30:00.884Z,31
2022-11-20T13:34:59.334Z,31
2022-11-20T13:39:59.426Z,32
2022-11-20T13:44:59.350Z,32
2022-11-20T13:49:59.235Z,32
2022-11-20T13:54:58.988Z,32
2022-11-20T13:59:59.421Z,32
2022-11-20T14:04:59.366Z,33
2022-11-20T14:09:59.280Z,33
2022-11-20T14:14:59.058Z,33
2022-11-20T14:19:59.261Z,33
2022-11-20T14:24:59.342Z,33
2022-11-20T14:30:00.739Z,33
2022-11-20T14:34:59.043Z,33
2022-11-20T14:39:59.026Z,33
2022-11-20T14:44:58.999Z,33
2022-11-20T14:49:59.080Z,34
2022-11-20T14:54:59.404Z,33
2022-11-20T14:59:59.338Z,34
2022-11-20T15:04:59.240Z,34
2022-11-20T15:09:59.703Z,34
2022-11-20T15:14:59.257Z,34
2022-11-20T15:19:58.970Z,34
2022-11-20T15:24:58.994Z,34
2022-11-20T15:29:59.010Z,34
2022-11-20T15:34:59.297Z,34
2022-11-20T15:39:59.350Z,34
2022-11-20T15:44:58.991Z,34
2022-11-20T15:49:59.315Z,33
2022-11-20T15:54:59.166Z,34
2022-11-20T15:59:58.972Z,34
2022-11-20T16:04:59.206Z,34
2022-11-20T16:09:59.231Z,34
2022-11-20T16:14:59.160Z,33
2022-11-20T16:19:59.230Z,33
2022-11-20T16:24:59.294Z,33
2022-11-20T16:29:59.111Z,33
2022-11-20T16:34:59.194Z,33
2022-11-20T16:39:59.076Z,33
2022-11-20T16:44:58.959Z,33
2022-11-20T16:49:59.016Z,32
2022-11-20T16:54:59.091Z,32
2022-11-20T17:00:02.324Z,32
2022-11-20T17:04:58.960Z,32
2022-11-20T17:09:59.033Z,32
2022-11-20T17:14:59.220Z,32
2022-11-20T17:19:59.033Z,32
2022-11-20T17:24:59.038Z,32
2022-11-20T17:29:58.868Z,32
2022-11-20T17:34:59.146Z,32
2022-11-20T17:39:59.143Z,32
2022-11-20T17:44:58.920Z,32
2022-11-20T17:50:00.523Z,32
2022-11-20T17:55:00.477Z,32
2022-11-20T18:00:00.538Z,32
2022-11-20T18:05:00.374Z,32
2022-11-20T18:10:00.484Z,32
2022-11-20T18:15:00.492Z,32
2022-11-20T18:20:27.417Z,32
2022-11-20T18:25:00.391Z,32
2022-11-20T18:30:00.599Z,31
2022-11-20T18:35:00.411Z,32
2022-11-20T18:40:00.464Z,32
2022-11-20T18:45:00.541Z,31
2022-11-20T18:50:00.482Z,32
2022-11-20T18:55:00.419Z,32
2022-11-20T19:00:06.495Z,31
2022-11-20T19:05:00.373Z,31
2022-11-20T19:10:03.686Z,32
2022-11-20T19:15:00.377Z,32
2022-11-20T19:20:00.502Z,32
2022-11-20T19:25:00.418Z,32
2022-11-20T19:30:00.382Z,33
2022-11-20T19:35:00.341Z,33
2022-11-20T19:40:00.414Z,33
2022-11-20T19:45:00.406Z,33
2022-11-20T19:50:00.438Z,33
2022-11-20T19:55:00.614Z,33
2022-11-20T20:00:00.536Z,33
2022-11-20T20:05:00.410Z,33
2022-11-20T20:10:00.172Z,33
2022-11-20T20:15:00.444Z,33
2022-11-20T20:20:00.494Z,33
2022-11-20T20:25:00.125Z,33
2022-11-20T20:30:00.402Z,33
2022-11-20T20:35:00.435Z,33
2022-11-20T20:40:00.407Z,33
2022-11-20T20:45:00.272Z,34
2022-11-20T20:50:00.382Z,33
2022-11-20T20:55:00.414Z,33
2022-11-20T21:00:00.349Z,33
2022-11-20T21:05:00.267Z,33
2022-11-20T21:10:00.387Z,32
2022-11-20T21:15:00.092Z,32
2022-11-20T21:20:00.389Z,32
2022-11-20T21:25:00.017Z,32
2022-11-20T21:30:00.335Z,31
2022-11-20T21:35:00.425Z,31
2022-11-20T21:40:00.039Z,31
2022-11-20T21:45:00.434Z,31
2022-11-20T21:50:00.516Z,30
2022-11-20T21:55:00.465Z,30
2022-11-20T22:00:00.194Z,30
2022-11-20T22:05:00.439Z,30
2022-11-20T22:10:00.121Z,30
2022-11-20T22:15:00.074Z,30
2022-11-20T22:20:00.522Z,30
2022-11-20T22:24:59.968Z,30
2022-11-20T22:30:00.096Z,30
2022-11-20T22:34:59.968Z,30
2022-11-20T22:40:00.191Z,30
2022-11-20T22:45:00.200Z,30
2022-11-20T22:50:00.419Z,30
2022-11-20T22:54:59.985Z,30
2022-11-20T23:00:00.319Z,30
2022-11-20T23:05:00.368Z,30
2022-11-20T23:10:00.200Z,30
2022-11-20T23:15:00.120Z,30
2022-11-20T23:19:59.888Z,31
2022-11-20T23:25:00.357Z,31
2022-11-20T23:30:00.057Z,31
2022-11-20T23:34:59.993Z,31
2022-11-20T23:40:00.161Z,30
2022-11-20T23:45:00.105Z,31
2022-11-20T23:49:59.885Z,31
2022-11-20T23:55:00.098Z,31
2022-11-20T23:59:59.983Z,31
